Time;durP1;ratioP1;P1;durP2;ratioP2;P2;SDS_P1;SDS_P2;PMS_P1;PMS_P2;Temp;Humidity;BMP_temperature;BMP_pressure;BME280_temperature;BME280_humidity;BME280_pressure;Samples;Min_cycle;Max_cycle;Signal;HPM_P1;HPM_P2
2021/04/01 00:02:17;;;;;;;2.20;1.63;;;22.40;46.40;;;;;;4988370;28;20431;-85
2021/04/01 00:04:43;;;;;;;1.70;1.57;;;22.40;45.90;;;;;;4989362;28;20174;-84
2021/04/01 00:07:12;;;;;;;1.87;1.60;;;22.40;46.00;;;;;;4988674;28;20428;-85
2021/04/01 00:09:38;;;;;;;2.20;1.50;;;22.40;45.60;;;;;;4988363;28;20170;-84
2021/04/01 00:12:04;;;;;;;2.60;1.70;;;22.40;46.20;;;;;;4987418;28;20429;-84
2021/04/01 00:14:33;;;;;;;2.70;1.73;;;22.20;45.80;;;;;;4989249;28;20166;-83
2021/04/01 00:17:00;;;;;;;1.60;1.40;;;22.40;46.30;;;;;;4988304;28;20448;-86
2021/04/01 00:19:28;;;;;;;1.87;1.60;;;22.40;45.80;;;;;;4988913;28;20946;-85
2021/04/01 00:21:54;;;;;;;2.03;1.63;;;22.40;45.90;;;;;;4987634;28;20456;-85
2021/04/01 00:24:20;;;;;;;2.07;1.70;;;22.40;46.30;;;;;;4988752;28;20421;-85
2021/04/01 00:26:46;;;;;;;1.90;1.53;;;22.40;45.90;;;;;;4988705;28;20417;-85
2021/04/01 00:29:12;;;;;;;2.83;1.33;;;22.40;45.90;;;;;;4988628;28;20493;-85
2021/04/01 00:31:38;;;;;;;1.47;1.30;;;22.40;46.10;;;;;;4988160;28;20174;-86
2021/04/01 00:34:04;;;;;;;1.70;1.50;;;22.40;45.90;;;;;;4989338;28;20193;-85
2021/04/01 00:36:30;;;;;;;1.90;1.40;;;22.40;46.10;;;;;;5001330;28;20420;-85
2021/04/01 00:38:55;;;;;;;2.57;1.80;;;22.40;46.10;;;;;;5004735;28;20244;-85
2021/04/01 00:41:21;;;;;;;1.70;1.50;;;22.40;46.10;;;;;;4998743;28;20182;-86
2021/04/01 00:43:47;;;;;;;1.40;1.23;;;22.40;46.30;;;;;;4990983;28;20178;-86
2021/04/01 00:46:13;;;;;;;1.53;1.30;;;22.40;46.30;;;;;;4992707;28;20182;-86
2021/04/01 00:48:40;;;;;;;2.87;1.30;;;22.40;46.20;;;;;;4993482;28;20193;-86
2021/04/01 00:51:06;;;;;;;2.17;1.63;;;22.40;45.70;;;;;;4995079;28;20184;-85
2021/04/01 00:53:31;;;;;;;1.40;1.30;;;22.40;46.50;;;;;;4992267;28;20432;-85
2021/04/01 00:55:58;;;;;;;2.13;1.60;;;22.40;46.20;;;;;;5010125;28;20280;-86
2021/04/01 00:58:40;;;;;;;;;;;;;;;;;;;;;
2021/04/01 01:01:36;;;;;;;1.67;1.43;;;22.40;45.90;;;;;;4993561;28;20429;-86
2021/04/01 01:04:08;;;;;;;1.60;1.33;;;22.40;45.90;;;;;;4994159;28;20398;-86
2021/04/01 01:06:33;;;;;;;1.87;1.43;;;22.40;46.10;;;;;;4994735;28;20393;-86
2021/04/01 01:09:29;;;;;;;2.20;1.23;;;22.10;46.30;;;;;;4992060;28;20918;-86
2021/04/01 01:12:01;;;;;;;1.53;1.40;;;22.40;45.80;;;;;;4991894;28;20202;-86
2021/04/01 01:14:27;;;;;;;1.90;1.60;;;22.40;46.20;;;;;;4990038;28;20939;-86
2021/04/01 01:16:53;;;;;;;2.30;1.50;;;22.30;46.00;;;;;;5006547;28;20425;-86
2021/04/01 01:19:20;;;;;;;2.00;1.50;;;22.40;46.10;;;;;;5006064;28;20465;-86
2021/04/01 01:21:46;;;;;;;1.60;1.40;;;22.40;46.00;;;;;;5006586;28;20425;-86
2021/04/01 01:27:37;;;;;;;2.03;1.50;;;22.40;45.80;;;;;;4990914;28;20169;-86
2021/04/01 01:30:26;;;;;;;1.47;1.30;;;22.40;46.10;;;;;;4990938;28;20417;-86
2021/04/01 01:33:00;;;;;;;1.40;1.23;;;22.40;45.90;;;;;;4991179;28;20439;-86
2021/04/01 01:35:32;;;;;;;1.77;1.30;;;22.30;46.00;;;;;;4991127;28;20398;-87
2021/04/01 01:38:00;;;;;;;1.70;1.30;;;22.40;46.10;;;;;;4990391;28;20449;-86
2021/04/01 01:40:28;;;;;;;1.73;1.43;;;22.40;46.20;;;;;;4990412;28;20405;-86
2021/04/01 01:42:57;;;;;;;1.90;1.40;;;22.40;46.00;;;;;;4989782;28;20417;-85
2021/04/01 01:45:23;;;;;;;1.93;1.43;;;22.40;46.30;;;;;;4990292;28;20409;-86
2021/04/01 01:47:52;;;;;;;1.67;1.37;;;22.40;46.00;;;;;;4989567;28;20436;-86
2021/04/01 01:50:20;;;;;;;1.93;1.60;;;22.40;46.00;;;;;;4989419;28;20419;-86
2021/04/01 01:52:46;;;;;;;2.30;1.60;;;22.50;46.30;;;;;;4990528;28;20414;-85
2021/04/01 01:55:13;;;;;;;1.80;1.40;;;22.40;46.70;;;;;;5005627;28;20417;-85
2021/04/01 01:57:40;;;;;;;1.70;1.33;;;22.40;46.20;;;;;;4989214;28;20213;-86
2021/04/01 02:00:27;;;;;;;1.50;1.30;;;22.40;46.10;;;;;;4989924;28;20445;-85
2021/04/01 02:02:58;;;;;;;1.90;1.23;;;22.40;46.10;;;;;;4988794;28;20417;-85
2021/04/01 02:05:29;;;;;;;1.80;1.40;;;22.40;45.90;;;;;;4989463;28;20492;-87
2021/04/01 02:07:58;;;;;;;1.90;1.50;;;22.40;46.20;;;;;;4990538;28;20408;-86
2021/04/01 02:10:29;;;;;;;1.90;1.43;;;22.40;46.20;;;;;;4990615;28;20443;-85
2021/04/01 02:12:59;;;;;;;1.70;1.60;;;22.40;45.90;;;;;;4990329;28;20484;-86
2021/04/01 02:15:33;;;;;;;2.37;1.43;;;22.40;46.20;;;;;;4989749;28;20421;-86
2021/04/01 02:18:06;;;;;;;2.50;1.30;;;22.40;46.20;;;;;;4974510;28;20465;-86
2021/04/01 02:20:45;;;;;;;1.90;1.47;;;22.40;46.50;;;;;;4990525;28;20405;-86
2021/04/01 02:23:22;;;;;;;2.00;1.37;;;22.40;46.20;;;;;;4989410;28;20409;-85
2021/04/01 02:25:49;;;;;;;1.40;1.20;;;22.40;45.90;;;;;;4989360;28;20468;-85
2021/04/01 02:28:18;;;;;;;2.50;1.50;;;22.40;46.20;;;;;;4991110;28;20413;-85
2021/04/01 02:31:05;;;;;;;1.57;1.20;;;22.40;46.00;;;;;;5005427;28;20448;-86
2021/04/01 02:33:33;;;;;;;1.50;1.33;;;22.40;46.40;;;;;;4989309;28;20432;-85
2021/04/01 02:36:03;;;;;;;2.67;1.67;;;22.40;46.50;;;;;;4990335;28;20962;-86
2021/04/01 02:38:30;;;;;;;1.73;1.43;;;22.40;46.20;;;;;;4989520;28;20991;-86
2021/04/01 02:40:59;;;;;;;2.43;1.50;;;22.40;47.00;;;;;;4989047;28;20413;-86
2021/04/01 02:45:57;;;;;;;1.40;1.30;;;22.40;46.20;;;;;;4989722;28;20429;-85
2021/04/01 02:48:23;;;;;;;1.47;1.27;;;22.30;46.20;;;;;;4989297;28;20464;-86
2021/04/01 02:54:11;;;;;;;1.60;1.30;;;22.40;46.00;;;;;;4989812;28;20385;-86
2021/04/01 02:56:37;;;;;;;2.87;1.70;;;22.30;46.70;;;;;;4987932;28;20847;-86
2021/04/01 02:59:03;;;;;;;1.33;1.23;;;22.40;47.00;;;;;;5003991;28;20453;-85
2021/04/01 03:01:29;;;;;;;1.50;1.40;;;22.40;46.40;;;;;;5004013;28;20645;-85
2021/04/01 03:03:56;;;;;;;1.30;1.13;;;22.40;47.00;;;;;;4989338;28;20409;-85
2021/04/01 03:06:22;;;;;;;2.37;1.47;;;22.40;46.80;;;;;;4989548;28;20166;-85
2021/04/01 03:08:48;;;;;;;1.43;1.33;;;22.40;46.70;;;;;;4988856;28;20416;-85
2021/04/01 03:11:15;;;;;;;1.60;1.50;;;22.40;46.10;;;;;;4989327;28;20669;-85
2021/04/01 03:13:41;;;;;;;1.37;1.20;;;22.40;46.00;;;;;;4988845;28;20413;-85
2021/04/01 03:16:07;;;;;;;1.20;1.10;;;22.40;47.00;;;;;;4987060;28;20509;-85
2021/04/01 03:19:06;;;;;;;1.83;1.20;;;22.40;46.70;;;;;;4987167;28;20581;-85
2021/04/01 03:21:37;;;;;;;1.50;1.30;;;22.40;46.00;;;;;;4987221;28;20191;-86
2021/04/01 03:24:05;;;;;;;1.67;1.23;;;22.40;46.60;;;;;;4986664;28;20409;-86
2021/04/01 03:26:31;;;;;;;1.87;1.20;;;22.40;46.60;;;;;;4987548;28;20457;-86
2021/04/01 03:28:57;;;;;;;1.30;1.20;;;22.40;47.00;;;;;;4987901;28;20412;-85
2021/04/01 03:31:23;;;;;;;2.40;1.20;;;22.40;46.40;;;;;;4989366;28;20181;-86
2021/04/01 03:33:49;;;;;;;1.80;1.60;;;22.40;46.40;;;;;;4989425;28;20410;-86
2021/04/01 03:36:15;;;;;;;1.50;1.40;;;22.40;46.30;;;;;;4990946;28;20182;-86
2021/04/01 03:38:44;;;;;;;1.70;1.57;;;22.40;46.60;;;;;;4989863;28;20197;-86
2021/04/01 03:41:10;;;;;;;1.60;1.13;;;22.40;46.50;;;;;;4991330;28;20188;-86
2021/04/01 03:43:36;;;;;;;1.40;1.23;;;22.40;46.60;;;;;;4989600;28;20476;-86
2021/04/01 03:46:02;;;;;;;1.20;1.10;;;22.40;46.20;;;;;;4987102;28;20420;-86
2021/04/01 03:48:28;;;;;;;1.70;1.50;;;22.60;46.40;;;;;;4986765;28;20445;-86
2021/04/01 03:50:55;;;;;;;1.50;1.37;;;22.30;46.40;;;;;;4988105;28;20483;-86
2021/04/01 03:53:24;;;;;;;1.60;1.20;;;22.20;46.20;;;;;;4987711;28;20194;-85
2021/04/01 03:55:51;;;;;;;1.53;1.40;;;22.40;46.50;;;;;;4987169;28;20428;-85
2021/04/01 04:01:00;;;;;;;1.40;1.13;;;22.40;46.10;;;;;;4988020;28;20413;-85
2021/04/01 04:08:42;;;;;;;2.83;1.40;;;22.30;46.70;;;;;;4993344;28;20398;-86
2021/04/01 04:11:35;;;;;;;1.70;1.20;;;22.40;46.20;;;;;;4993068;28;20174;-85
2021/04/01 04:14:16;;;;;;;1.10;1.00;;;22.40;46.70;;;;;;4994596;28;20417;-86
2021/04/01 04:16:42;;;;;;;2.50;1.30;;;22.40;46.20;;;;;;4993978;28;20902;-85
2021/04/01 04:19:11;;;;;;;1.40;1.30;;;22.40;46.90;;;;;;4990706;28;20456;-85
2021/04/01 04:21:39;;;;;;;1.27;1.00;;;22.40;46.40;;;;;;4991306;28;20815;-86
2021/04/01 04:24:07;;;;;;;1.40;1.20;;;22.40;46.90;;;;;;4991218;28;20425;-85
2021/04/01 04:26:35;;;;;;;1.60;1.30;;;22.40;46.20;;;;;;4991031;28;20420;-85
2021/04/01 04:29:01;;;;;;;1.67;1.40;;;22.40;46.60;;;;;;5006093;28;20449;-86
2021/04/01 04:31:27;;;;;;;1.30;1.10;;;22.40;47.00;;;;;;4989310;28;20428;-86
2021/04/01 04:33:53;;;;;;;1.20;1.10;;;22.40;46.50;;;;;;4990243;28;20272;-85
2021/04/01 04:36:18;;;;;;;1.53;1.20;;;22.30;46.80;;;;;;5006668;28;20215;-85
2021/04/01 04:38:47;;;;;;;1.30;1.13;;;22.40;46.60;;;;;;4990320;28;20201;-85
2021/04/01 04:41:15;;;;;;;1.33;1.03;;;22.40;46.70;;;;;;4990315;28;20182;-85
2021/04/01 04:43:41;;;;;;;2.33;2.13;;;22.40;46.40;;;;;;4991909;28;20416;-85
2021/04/01 04:46:10;;;;;;;4.13;1.50;;;22.40;46.70;;;;;;4991968;28;20413;-85
2021/04/01 04:48:35;;;;;;;1.77;1.43;;;22.40;46.10;;;;;;4990405;28;20197;-85
2021/04/01 04:51:01;;;;;;;1.37;1.00;;;22.40;46.80;;;;;;4990014;28;20529;-84
2021/04/01 04:53:27;;;;;;;1.63;1.30;;;22.50;46.70;;;;;;4990265;28;20181;-85
2021/04/01 04:56:14;;;;;;;1.37;1.10;;;22.40;46.70;;;;;;4989471;28;20173;-85
2021/04/01 04:58:51;;;;;;;1.47;1.30;;;22.40;46.30;;;;;;4991551;28;20204;-85
2021/04/01 05:09:11;;;;;;;1.63;1.23;;;22.50;46.50;;;;;;4991178;28;20405;-85
2021/04/01 05:11:37;;;;;;;1.30;1.20;;;22.40;46.60;;;;;;4991213;28;20504;-85
2021/04/01 05:14:04;;;;;;;1.67;1.37;;;22.50;46.80;;;;;;4989347;28;20236;-86
2021/04/01 05:16:30;;;;;;;1.70;1.20;;;22.50;47.30;;;;;;4989242;28;20253;-86
2021/04/01 05:18:59;;;;;;;2.80;1.70;;;22.50;46.90;;;;;;4988620;28;20460;-86
2021/04/01 05:21:33;;;;;;;2.23;1.40;;;22.50;46.80;;;;;;4989241;28;20417;-85
2021/04/01 05:24:01;;;;;;;1.50;1.40;;;22.50;46.50;;;;;;4997573;28;20429;-85
2021/04/01 05:29:13;;;;;;;;;;;;;;;;;;;;;
2021/04/01 05:31:40;;;;;;;1.60;1.40;;;22.50;46.40;;;;;;4991169;28;20287;-85
2021/04/01 05:34:09;;;;;;;1.63;1.40;;;22.50;47.00;;;;;;4990915;28;20488;-85
2021/04/01 05:36:40;;;;;;;1.60;1.10;;;22.50;47.50;;;;;;4973832;28;20429;-86
2021/04/01 05:39:23;;;;;;;1.47;1.20;;;22.40;46.30;;;;;;4989973;28;20464;-85
2021/04/01 05:41:50;;;;;;;1.50;1.10;;;22.50;46.60;;;;;;4992398;28;20409;-84
2021/04/01 05:44:25;;;;;;;1.60;1.20;;;22.50;46.70;;;;;;5008695;28;20421;-85
2021/04/01 06:05:45;;;;;;;1.40;1.20;;;22.50;46.30;;;;;;4994025;28;20411;-85
2021/04/01 06:08:17;;;;;;;1.37;1.20;;;22.50;46.70;;;;;;4991127;28;20757;-85
2021/04/01 06:10:44;;;;;;;1.70;1.40;;;22.50;46.60;;;;;;4993074;28;20416;-86
2021/04/01 06:13:16;;;;;;;2.00;1.50;;;22.50;46.60;;;;;;5007410;28;20448;-85
2021/04/01 06:15:51;;;;;;;2.00;1.53;;;22.60;46.40;;;;;;4990046;28;20849;-85
2021/04/01 06:18:21;;;;;;;2.43;1.20;;;22.30;46.40;;;;;;4989926;28;20467;-85
2021/04/01 06:20:50;;;;;;;1.60;1.37;;;22.60;46.60;;;;;;4989550;28;20469;-86
2021/04/01 06:23:28;;;;;;;3.80;1.50;;;22.00;46.20;;;;;;4988381;28;20410;-85
2021/04/01 06:25:58;;;;;;;1.97;1.53;;;22.60;46.80;;;;;;4989028;28;20421;-85
2021/04/01 06:28:53;;;;;;;2.93;1.50;;;22.60;46.50;;;;;;4988823;28;20427;-85
2021/04/01 06:31:25;;;;;;;2.37;1.43;;;22.60;46.90;;;;;;4989866;28;20397;-85
2021/04/01 06:34:00;;;;;;;2.60;1.60;;;22.60;46.60;;;;;;4988837;28;20524;-85
2021/04/01 06:36:29;;;;;;;3.53;2.13;;;22.60;46.40;;;;;;4989114;28;20413;-85
2021/04/01 06:38:54;;;;;;;3.13;1.90;;;22.60;47.30;;;;;;4988153;28;20484;-84
2021/04/01 06:41:22;;;;;;;3.40;2.00;;;22.60;46.80;;;;;;4991258;28;20777;-84
2021/04/01 06:44:11;;;;;;;3.63;2.13;;;22.60;47.20;;;;;;4991376;28;20193;-85
2021/04/01 06:46:44;;;;;;;4.13;2.60;;;22.60;46.40;;;;;;5005862;28;20429;-85
2021/04/01 06:52:08;;;;;;;3.37;2.10;;;22.70;46.50;;;;;;4990505;28;20397;-85
2021/04/01 06:54:49;;;;;;;3.40;2.50;;;22.60;46.60;;;;;;4988473;28;20421;-85
2021/04/01 07:00:21;;;;;;;5.10;2.53;;;22.60;46.90;;;;;;4979006;28;20812;-85
2021/04/01 07:03:06;;;;;;;6.60;2.40;;;22.60;46.40;;;;;;4987189;28;20422;-85
2021/04/01 07:08:22;;;;;;;4.77;2.70;;;22.60;46.90;;;;;;4989066;28;20409;-85
2021/04/01 07:13:29;;;;;;;2.37;2.17;;;22.60;46.90;;;;;;4989276;28;20404;-85
2021/04/01 07:16:01;;;;;;;3.30;2.30;;;22.70;47.20;;;;;;4988038;28;20762;-86
2021/04/01 07:19:01;;;;;;;3.87;2.57;;;22.70;47.10;;;;;;4989112;28;20470;-85
2021/04/01 07:46:40;;;;;;;7.17;4.40;;;22.70;46.90;;;;;;4988864;28;20850;-85
2021/04/01 07:52:32;;;;;;;3.17;2.50;;;22.70;46.70;;;;;;4989396;28;20408;-87
2021/04/01 07:55:09;;;;;;;4.23;2.80;;;22.70;46.70;;;;;;4989454;28;20421;-85
2021/04/01 08:00:37;;;;;;;3.93;2.43;;;22.70;47.10;;;;;;4988995;28;20449;-84
2021/04/01 08:06:09;;;;;;;4.23;1.90;;;22.50;46.70;;;;;;4941682;29;21155;-86
2021/04/01 08:15:24;;;;;;;5.13;2.53;;;22.70;46.70;;;;;;4991974;28;20387;-88
2021/04/01 08:18:08;;;;;;;3.87;2.47;;;22.70;46.90;;;;;;4993454;28;20426;-88
2021/04/01 08:20:35;;;;;;;5.17;3.33;;;22.70;46.80;;;;;;4991482;28;20420;-88
2021/04/01 08:37:00;;;;;;;5.80;4.43;;;22.60;46.80;;;;;;4987953;28;20431;-87
2021/04/01 08:39:25;;;;;;;12.20;5.20;;;22.50;46.40;;;;;;4987983;28;20457;-82
2021/04/01 08:42:03;;;;;;;6.63;4.67;;;22.50;45.60;;;;;;4989024;28;20485;-86
2021/04/01 08:45:12;;;;;;;9.63;3.80;;;22.50;46.00;;;;;;4987748;28;20170;-87
2021/04/01 08:48:06;;;;;;;6.47;4.03;;;22.50;46.10;;;;;;4986462;28;20437;-87
2021/04/01 08:50:47;;;;;;;4.90;3.70;;;22.50;46.20;;;;;;4971683;28;20417;-87
2021/04/01 08:53:49;;;;;;;5.40;3.50;;;22.50;46.30;;;;;;4987388;28;20614;-89
2021/04/01 08:56:28;;;;;;;5.57;4.40;;;22.50;46.30;;;;;;4988274;28;20488;-86
2021/04/01 08:59:10;;;;;;;7.53;3.97;;;22.40;47.00;;;;;;4988942;28;20460;-84
2021/04/01 09:01:40;;;;;;;5.13;4.10;;;22.40;46.50;;;;;;4988319;28;20413;-84
2021/04/01 09:04:13;;;;;;;5.57;4.63;;;22.40;46.60;;;;;;4991233;28;20488;-87
2021/04/01 09:06:45;;;;;;;7.10;4.43;;;22.40;46.40;;;;;;4989282;28;20401;-85
2021/04/01 09:09:30;;;;;;;5.33;4.17;;;22.40;46.80;;;;;;4988656;28;20477;-86
2021/04/01 09:14:57;;;;;;;5.03;4.20;;;22.40;46.40;;;;;;4979107;28;20440;-91
2021/04/01 09:17:40;;;;;;;6.70;4.50;;;22.40;46.40;;;;;;4987919;28;20417;-85
2021/04/01 09:20:18;;;;;;;4.93;3.57;;;22.00;46.40;;;;;;4989230;28;20467;-88
2021/04/01 09:22:46;;;;;;;6.07;4.50;;;22.40;47.60;;;;;;4989284;28;20427;-85
2021/04/01 09:25:39;;;;;;;5.23;4.20;;;22.40;46.70;;;;;;4987798;28;20421;-86
2021/04/01 09:28:09;;;;;;;6.27;4.30;;;22.40;46.50;;;;;;4990421;28;20413;-84
2021/04/01 09:30:36;;;;;;;6.90;4.20;;;22.40;46.40;;;;;;4991097;28;20414;-85
2021/04/01 09:33:26;;;;;;;5.87;5.23;;;22.40;46.30;;;;;;4990865;28;20437;-88
2021/04/01 09:35:53;;;;;;;9.30;4.90;;;22.40;46.10;;;;;;4989039;28;20405;-84
2021/04/01 09:38:20;;;;;;;10.90;6.03;;;22.30;46.20;;;;;;4988977;28;20456;-84
2021/04/01 09:40:51;;;;;;;5.67;4.10;;;22.30;46.50;;;;;;4988925;28;20424;-86
2021/04/01 09:43:20;;;;;;;6.10;4.73;;;22.30;46.50;;;;;;4988837;28;20390;-84
2021/04/01 09:45:56;;;;;;;8.60;4.60;;;22.40;46.70;;;;;;4985822;28;20426;-85
2021/04/01 09:48:27;;;;;;;7.57;4.17;;;22.40;46.60;;;;;;4985397;28;20445;-85
2021/04/01 09:50:58;;;;;;;5.23;4.37;;;22.40;46.40;;;;;;4985104;28;20884;-84
2021/04/01 09:53:24;;;;;;;7.00;4.33;;;22.40;46.90;;;;;;4970703;29;20499;-84
2021/04/01 10:02:22;;;;;;;3.70;3.40;;;22.40;46.20;;;;;;4971706;29;20453;-84
2021/04/01 10:04:55;;;;;;;5.63;3.90;;;22.30;46.60;;;;;;4972601;29;20402;-83
2021/04/01 10:07:23;;;;;;;7.17;5.10;;;22.30;46.80;;;;;;4972417;29;20437;-84
2021/04/01 10:09:51;;;;;;;5.67;4.13;;;22.40;46.70;;;;;;4971703;29;20409;-84
2021/04/01 10:12:21;;;;;;;6.13;3.40;;;22.40;46.60;;;;;;4987060;28;20438;-84
2021/04/01 10:14:53;;;;;;;8.07;3.57;;;22.40;47.30;;;;;;4972711;29;20414;-83
2021/04/01 10:17:50;;;;;;;6.07;3.70;;;22.40;47.10;;;;;;4987152;28;20430;-84
2021/04/01 10:20:17;;;;;;;3.60;3.10;;;22.50;46.30;;;;;;4969115;29;20457;-82
2021/04/01 10:22:43;;;;;;;5.20;3.60;;;22.40;47.20;;;;;;4970326;29;20845;-83
2021/04/01 10:30:34;;;;;;;3.37;3.07;;;22.40;46.50;;;;;;4973846;28;20446;-82
2021/04/01 10:33:12;;;;;;;5.00;3.50;;;22.40;47.00;;;;;;4971963;29;20440;-82
2021/04/01 10:35:41;;;;;;;4.40;3.40;;;22.40;47.00;;;;;;4972343;29;20394;-83
2021/04/01 10:38:07;;;;;;;3.90;3.33;;;22.30;46.90;;;;;;4987115;28;20465;-84
2021/04/01 10:40:37;;;;;;;4.87;3.80;;;22.40;48.00;;;;;;4987345;28;20418;-83
2021/04/01 10:43:13;;;;;;;6.67;4.07;;;22.40;46.30;;;;;;4971555;29;20498;-83
2021/04/01 10:45:41;;;;;;;4.13;3.30;;;22.40;46.30;;;;;;4987187;28;20493;-83
2021/04/01 10:48:39;;;;;;;4.63;3.50;;;22.40;46.60;;;;;;4987054;28;20441;-84
2021/04/01 10:51:08;;;;;;;6.43;4.00;;;21.80;45.90;;;;;;4973286;28;20417;-83
2021/04/01 10:53:40;;;;;;;3.17;2.87;;;22.40;47.00;;;;;;4974020;28;20441;-84
2021/04/01 10:56:10;;;;;;;7.00;4.27;;;22.40;46.60;;;;;;4973965;28;20505;-83
2021/04/01 10:58:49;;;;;;;5.27;3.57;;;22.40;47.20;;;;;;4973494;28;20452;-84
2021/04/01 11:01:18;;;;;;;5.47;3.03;;;22.50;47.00;;;;;;4973927;28;20421;-83
2021/04/01 11:03:47;;;;;;;4.87;3.10;;;22.40;47.00;;;;;;4990035;28;20873;-84
2021/04/01 11:06:14;;;;;;;5.00;3.07;;;22.40;46.60;;;;;;4973864;28;20425;-82
2021/04/01 11:08:43;;;;;;;3.77;3.13;;;22.40;46.80;;;;;;4973419;28;20425;-83
2021/04/01 11:11:11;;;;;;;4.80;3.40;;;21.80;46.60;;;;;;4973990;28;20488;-84
2021/04/01 11:13:39;;;;;;;4.10;2.83;;;21.70;46.50;;;;;;4989380;28;20412;-83
2021/04/01 11:16:07;;;;;;;4.17;3.33;;;22.40;46.90;;;;;;4973739;28;20432;-83
2021/04/01 11:18:39;;;;;;;3.70;3.33;;;22.40;46.90;;;;;;4989116;28;21061;-83
2021/04/01 11:21:06;;;;;;;3.60;3.30;;;22.40;46.60;;;;;;4973322;28;20501;-84
2021/04/01 11:23:34;;;;;;;5.50;3.10;;;22.40;46.60;;;;;;4989915;28;20444;-83
2021/04/01 11:26:01;;;;;;;5.60;4.80;;;22.40;46.90;;;;;;4987090;28;20414;-84
2021/04/01 11:28:40;;;;;;;5.67;3.10;;;22.10;46.80;;;;;;4972174;29;20445;-83
2021/04/01 11:31:07;;;;;;;4.50;2.90;;;22.40;46.50;;;;;;4986749;28;20436;-83
2021/04/01 11:33:41;;;;;;;3.90;3.43;;;22.40;47.00;;;;;;4986428;28;20558;-83
2021/04/01 11:36:09;;;;;;;4.60;3.20;;;22.40;46.80;;;;;;4972467;29;20406;-83
2021/04/01 11:38:44;;;;;;;4.53;3.00;;;22.40;47.30;;;;;;4987016;28;20493;-84
2021/04/01 11:41:15;;;;;;;3.30;2.77;;;22.40;46.50;;;;;;4986643;28;20410;-83
2021/04/01 11:43:43;;;;;;;3.03;2.73;;;22.40;46.90;;;;;;4986696;28;20414;-83
2021/04/01 11:46:23;;;;;;;3.60;2.73;;;22.40;48.00;;;;;;4970512;29;20425;-83
2021/04/01 11:48:51;;;;;;;5.80;3.03;;;22.40;46.50;;;;;;4986324;28;20433;-83
2021/04/01 11:51:28;;;;;;;2.73;2.43;;;22.40;46.90;;;;;;4986156;28;20477;-83
2021/04/01 11:54:01;;;;;;;4.73;3.60;;;22.40;46.60;;;;;;4971782;28;21011;-84
2021/04/01 11:56:38;;;;;;;3.70;2.70;;;21.60;47.40;;;;;;4971512;29;20445;-83
2021/04/01 11:59:29;;;;;;;4.73;2.80;;;22.40;46.60;;;;;;4986334;28;20465;-83
2021/04/01 12:02:08;;;;;;;3.30;3.10;;;22.40;47.00;;;;;;4971790;28;20445;-83
2021/04/01 12:04:36;;;;;;;3.13;2.83;;;22.30;49.00;;;;;;4970148;28;20441;-83
2021/04/01 12:07:05;;;;;;;2.90;2.60;;;22.40;48.20;;;;;;4986161;28;20429;-83
2021/04/01 12:09:32;;;;;;;3.70;2.87;;;22.80;47.60;;;;;;4970762;29;20461;-84
2021/04/01 12:11:58;;;;;;;3.10;2.80;;;22.30;47.80;;;;;;4985968;28;20508;-83
2021/04/01 12:14:36;;;;;;;2.97;2.70;;;22.40;48.90;;;;;;4969353;28;20453;-84
2021/04/01 12:17:06;;;;;;;3.93;3.07;;;22.40;47.00;;;;;;4985526;28;20434;-84
2021/04/01 12:19:36;;;;;;;4.53;2.70;;;22.40;47.70;;;;;;4970026;28;20542;-83
2021/04/01 12:22:13;;;;;;;4.60;2.90;;;22.30;47.50;;;;;;4970902;29;20461;-83
2021/04/01 12:24:39;;;;;;;3.17;2.87;;;22.30;47.30;;;;;;4986213;28;20410;-83
2021/04/01 12:27:06;;;;;;;2.77;2.43;;;22.30;48.60;;;;;;4969762;29;20418;-83
2021/04/01 12:29:44;;;;;;;3.93;2.90;;;22.30;47.20;;;;;;4973249;28;20182;-83
2021/04/01 12:32:10;;;;;;;3.03;2.73;;;22.30;46.90;;;;;;4958585;29;20437;-83
2021/04/01 12:34:35;;;;;;;2.83;2.63;;;22.30;47.90;;;;;;4973212;29;20430;-84
2021/04/01 12:37:15;;;;;;;4.50;2.93;;;22.30;47.60;;;;;;4973605;29;20242;-84
2021/04/01 12:39:56;;;;;;;3.47;2.77;;;22.30;47.30;;;;;;4990145;28;20214;-83
2021/04/01 12:42:33;;;;;;;3.07;2.80;;;22.30;46.80;;;;;;4989211;28;20421;-83
2021/04/01 12:44:59;;;;;;;3.90;3.10;;;22.30;47.10;;;;;;4974015;29;20496;-84
2021/04/01 12:47:25;;;;;;;3.50;2.67;;;;;;;;;;4973866;29;20971;-83
2021/04/01 12:50:00;;;;;;;3.40;2.87;;;22.30;46.30;;;;;;4989044;28;20257;-83
2021/04/01 12:52:25;;;;;;;3.00;2.70;;;21.70;46.90;;;;;;4988613;28;20428;-83
2021/04/01 12:54:52;;;;;;;3.80;2.63;;;22.30;47.70;;;;;;4974470;29;20402;-83
2021/04/01 12:57:24;;;;;;;5.47;4.70;;;22.30;47.90;;;;;;4988902;28;20178;-84
2021/04/01 12:59:55;;;;;;;3.60;2.80;;;22.90;48.00;;;;;;4973082;29;20457;-83
2021/04/01 13:02:26;;;;;;;3.33;2.83;;;22.30;48.30;;;;;;4973163;29;20420;-83
2021/04/01 13:04:55;;;;;;;3.30;3.00;;;22.30;48.50;;;;;;4989160;28;20408;-83
2021/04/01 13:10:39;;;;;;;3.87;2.80;;;22.30;47.20;;;;;;4974305;29;20397;-84
2021/04/01 13:12:58;;;;;;;4.23;3.00;;;21.70;46.90;;;;;;4973485;28;20422;-84
2021/04/01 13:15:25;;;;;;;2.67;2.47;;;22.30;47.30;;;;;;4971815;29;20425;-83
2021/04/01 13:17:51;;;;;;;3.33;3.00;;;22.30;46.80;;;;;;4972665;28;20426;-83
2021/04/01 13:20:18;;;;;;;3.20;2.90;;;22.30;47.50;;;;;;4973488;29;20541;-83
2021/04/01 13:25:30;;;;;;;4.50;3.20;;;22.30;47.80;;;;;;4982432;28;20414;-84
2021/04/01 13:28:02;;;;;;;3.00;2.63;;;22.30;47.70;;;;;;4973833;29;20414;-84
2021/04/01 13:30:31;;;;;;;3.80;3.40;;;22.30;47.10;;;;;;4972898;28;20418;-83
2021/04/01 13:33:14;;;;;;;5.10;2.60;;;22.30;47.30;;;;;;4974382;28;20454;-83
2021/04/01 13:36:11;;;;;;;3.30;2.80;;;22.30;46.90;;;;;;4974523;29;20398;-83
2021/04/01 13:38:39;;;;;;;3.00;2.70;;;22.30;47.10;;;;;;4975021;28;20589;-83
2021/04/01 13:41:10;;;;;;;2.43;2.23;;;22.20;47.70;;;;;;4973485;28;20406;-84
2021/04/01 13:43:37;;;;;;;3.00;2.70;;;22.20;47.00;;;;;;4974234;29;20409;-83
2021/04/01 13:46:03;;;;;;;3.87;3.57;;;22.20;47.30;;;;;;4975206;29;20441;-82
2021/04/01 13:48:32;;;;;;;3.60;2.90;;;22.30;47.50;;;;;;4988946;28;20578;-83
2021/04/01 13:51:24;;;;;;;3.77;2.70;;;22.30;47.10;;;;;;4973668;29;20421;-83
2021/04/01 13:53:54;;;;;;;3.60;2.70;;;22.20;47.30;;;;;;4973218;28;20418;-84
2021/04/01 13:56:31;;;;;;;3.83;2.70;;;22.20;47.30;;;;;;4973369;28;20757;-83
2021/04/01 13:59:27;;;;;;;2.40;2.20;;;22.30;47.40;;;;;;4988601;28;20988;-84
2021/04/01 14:10:31;;;;;;;3.63;2.70;;;22.20;47.10;;;;;;4972913;29;20393;-83
2021/04/01 14:12:57;;;;;;;3.27;2.97;;;22.20;47.20;;;;;;4988221;28;20417;-84
2021/04/01 14:15:23;;;;;;;3.47;3.13;;;22.20;47.20;;;;;;4987807;28;20494;-82
2021/04/01 14:17:50;;;;;;;3.03;2.80;;;22.20;47.70;;;;;;4971409;28;20422;-83
2021/04/01 14:20:22;;;;;;;2.87;2.57;;;22.20;47.40;;;;;;4972017;29;20190;-83
2021/04/01 14:22:50;;;;;;;3.70;2.67;;;22.20;47.50;;;;;;4987169;28;20414;-84
2021/04/01 14:25:38;;;;;;;3.23;2.80;;;22.20;47.70;;;;;;4971600;28;20419;-84
2021/04/01 14:28:04;;;;;;;3.00;2.33;;;22.20;47.20;;;;;;4972037;28;20410;-83
2021/04/01 14:30:32;;;;;;;4.30;2.77;;;22.20;47.90;;;;;;4971030;28;20422;-83
2021/04/01 14:32:59;;;;;;;3.60;2.67;;;22.20;47.40;;;;;;4972480;29;20462;-83
2021/04/01 14:35:32;;;;;;;2.93;2.70;;;22.20;47.30;;;;;;4972686;28;20479;-83
2021/04/01 14:38:04;;;;;;;3.40;2.10;;;22.20;47.30;;;;;;4987706;28;20433;-83
2021/04/01 14:40:42;;;;;;;2.63;2.20;;;22.20;47.70;;;;;;4972924;28;20410;-83
2021/04/01 14:43:29;;;;;;;3.67;2.80;;;22.20;47.20;;;;;;4973142;28;20469;-83
2021/04/01 14:45:56;;;;;;;2.90;2.20;;;22.20;48.00;;;;;;4986704;28;20931;-84
2021/04/01 14:48:22;;;;;;;2.83;2.60;;;22.20;47.50;;;;;;4971756;29;20426;-83
2021/04/01 14:50:51;;;;;;;3.07;2.57;;;22.20;47.40;;;;;;4972322;29;20410;-84
2021/04/01 14:56:04;;;;;;;3.00;2.67;;;22.20;47.20;;;;;;4972768;29;20396;-84
2021/04/01 14:58:32;;;;;;;2.60;2.23;;;22.20;47.60;;;;;;4986582;28;20481;-83
2021/04/01 15:00:58;;;;;;;2.70;2.50;;;22.20;47.30;;;;;;4986258;28;20944;-84
2021/04/01 15:03:27;;;;;;;3.40;2.30;;;22.10;47.10;;;;;;4987431;28;20449;-83
2021/04/01 15:05:57;;;;;;;2.53;2.30;;;22.10;47.80;;;;;;4970829;28;20426;-83
2021/04/01 15:08:24;;;;;;;3.23;2.50;;;22.20;47.50;;;;;;4972189;29;20474;-83
2021/04/01 15:10:54;;;;;;;2.70;2.07;;;22.10;47.70;;;;;;4971055;29;20909;-83
2021/04/01 15:13:24;;;;;;;3.00;2.30;;;22.10;47.30;;;;;;4971744;29;20429;-82
2021/04/01 15:15:50;;;;;;;2.40;2.20;;;22.10;47.50;;;;;;4972554;29;20418;-84
2021/04/01 15:18:17;;;;;;;2.53;2.10;;;22.10;48.10;;;;;;4971552;28;20432;-84
2021/04/01 15:20:43;;;;;;;2.93;2.50;;;22.10;47.40;;;;;;4971794;29;20421;-83
2021/04/01 15:23:11;;;;;;;3.40;2.40;;;22.20;48.30;;;;;;4971469;29;20421;-83
2021/04/01 15:25:47;;;;;;;2.87;2.20;;;22.10;47.40;;;;;;4973961;29;20398;-83
2021/04/01 15:28:18;;;;;;;2.50;2.30;;;22.10;48.30;;;;;;4987542;28;20441;-83
2021/04/01 15:30:44;;;;;;;2.63;2.33;;;22.10;47.40;;;;;;4971063;29;20410;-82
2021/04/01 15:33:12;;;;;;;2.50;2.30;;;22.10;48.10;;;;;;4971509;29;20421;-83
2021/04/01 15:35:39;;;;;;;3.10;2.50;;;22.10;48.00;;;;;;4972110;29;20482;-83
2021/04/01 15:38:08;;;;;;;2.17;1.97;;;22.10;47.40;;;;;;4971916;29;20413;-83